Current Weather Conditions: station 46145

sailwx.info

Wind from 150 at 15 knots gusting 19

Wave height 1.0 meters (3 feet), 20 second period

Air temperature 7.4° C
Water temperature 8.5° C

Last reported at 2015-Jan-28 10:00 UTC.
Time now 2015-Jan-28 12:11 UTC

Location: N 54°24' W 132°24'.
View on Google Maps.

See reports from other nearby stations

  
Tides and Currents Weather Stations Pressure Air Temp Water Temp Dewpoint Dewpoint Depression Visibility Wind Speed Wind Dir Waves Ship Positions
date/time (UTC)wind fromknots sea level pressurealtimeterstation pressurevisibilityair tempwater tempwave heightnotes
2015-Jan-28 10:00 150 15 gusting 19 7.4 8.5 1.0
2015-Jan-28 09:00 140 17 gusting 19 7.5 8.5 1.0
2015-Jan-28 08:00 140 15 gusting 19 7.3 8.5 1.1
2015-Jan-28 07:00 140 15 gusting 17 7.2 8.5 1.0
2015-Jan-28 06:00 150 15 gusting 17 7.0 8.5 1.1
2015-Jan-28 05:00 140 13 gusting 17 6.8 8.5 1.1
2015-Jan-28 04:00 160 11 gusting 13 6.7 8.5 1.1
2015-Jan-28 03:00 150 7 gusting 9 6.7 8.5 1.3
2015-Jan-28 02:00 180 5 gusting 7 6.4 8.5 1.5
2015-Jan-28 01:00 250 7 gusting 13 6.2 8.5 1.6
2015-Jan-28 00:00 280 7 gusting 11 5.8 8.6 1.7
2015-Jan-27 23:00 260 5 gusting 9 5.9 8.6 1.8
2015-Jan-27 22:00 270 13 gusting 17 5.9 8.6 2.0
2015-Jan-27 21:00 280 15 gusting 19 6.2 8.7 2.0
2015-Jan-27 20:00 270 13 gusting 17 6.2 8.6 1.9
2015-Jan-27 19:00 280 15 gusting 19 6.7 8.6 2.0
2015-Jan-27 18:00 280 17 gusting 21 6.3 8.6 2.1
2015-Jan-27 17:00 280 19 gusting 23 6.6 8.6 2.2
2015-Jan-27 16:00 290 19 gusting 25 6.5 8.6 2.3
2015-Jan-27 15:00 290 19 gusting 25 6.4 8.7 2.3
2015-Jan-27 14:00 290 19 gusting 25 6.2 8.7 2.3
2015-Jan-27 13:00 290 21 gusting 25 6.1 8.7 2.5
2015-Jan-27 12:00 300 21 gusting 27 6.3 8.7 2.4
2015-Jan-27 11:00 300 17 gusting 21 6.2 8.7 2.3
2015-Jan-27 10:00 300 11 gusting 15 6.6 8.7 2.1
2015-Jan-27 09:00 290 7 gusting 11 6.8 8.7 1.9
2015-Jan-27 08:00 350 9 gusting 11 6.4 8.7 1.7
2015-Jan-27 07:00 350 9 gusting 13 6.6 8.7 1.7
2015-Jan-27 06:00 350 11 gusting 15 6.6 8.6 1.5
2015-Jan-27 05:00 6.6 8.7 1.6
2015-Jan-27 04:00 350 13 gusting 17 6.6 8.8 1.5
2015-Jan-27 03:00 340 13 gusting 17 6.5 8.8 1.7
2015-Jan-27 02:00 360 13 gusting 15 6.7 8.5 1.8
2015-Jan-27 01:00 6.4 8.7 1.8
2015-Jan-27 00:00 010 13 gusting 15 6.5 8.7 1.8
2015-Jan-26 23:00 010 11 gusting 13 6.6 8.4 1.9
2015-Jan-26 22:00 010 13 gusting 15 6.5 8.5 1.9
2015-Jan-26 21:00 010 15 gusting 17 6.4 8.7 1.9
2015-Jan-26 20:00 010 15 gusting 17 6.2 8.7 1.8
2015-Jan-26 19:00 6.4 8.7 1.5
2015-Jan-26 18:00 6.4 8.8 1.3
2015-Jan-26 17:00 010 11 gusting 15 6.1 8.8 1.4
2015-Jan-26 16:00 010 11 gusting 13 5.9 8.7 1.4
2015-Jan-26 15:00 010 11 gusting 15 5.9 8.6 1.4
2015-Jan-26 14:00 010 11 gusting 15 6.5 8.7 1.2
2015-Jan-26 13:00 7.2 8.6 1.4
2015-Jan-26 12:00 360 7 gusting 7 7.5 8.3 1.2